To NAV CANADA Home Page Login to a new session Search on AWWS site Feedback and Comments Disclaimer Vers la page française équivalente Tips FAQ What's new on the site To the Forecasts and Observations / NOTAM section To "File a Flight Plan" website Publications and other links Update of the User's profile FIC Telephone Numbers My Weather Data Folder Route Weather Data Regional Weather Data Local Weather Data To the Forecasts and Observations / NOTAM section
Request Generated 10/09/2015 at 03:10:52 UTC . Weather information available at that time is displayed.


CHURCHILL/MB    (show WxCam)

METAR CYYQ 090300Z 33018G27KT 15SM BKN050 M00/M08 A3007 RMK SC6
METAR CYYQ 090200Z 31016KT 15SM BKN050 M00/M07 A3007 RMK SC6 SLP186=
METAR CYYQ 090100Z 31016G24KT 15SM BKN045 M00/M07 A3007 RMK SC6

TAF CYYQ 082338Z 0900/0924 34020G30KT P6SM BKN040
FM091000 32015G25KT P6SM SCT020 BKN030
FM091800 32012KT P6SM SCT040
BECMG 0922/0924 35006KT
Your time UTC time
Weather data provided by Environment Canada and NAV CANADA